createdAt,value
2017-11-24T00:02:06.248Z,3.70
2017-11-24T00:04:34.537Z,3.80
2017-11-24T00:07:02.868Z,2.73
2017-11-24T00:09:31.915Z,3.70
2017-11-24T00:12:00.252Z,3.00
2017-11-24T00:14:29.300Z,3.20
2017-11-24T00:16:57.587Z,3.20
2017-11-24T00:19:25.925Z,3.40
2017-11-24T00:21:55.793Z,2.97
2017-11-24T00:24:24.128Z,2.30
2017-11-24T00:26:52.416Z,2.70
2017-11-24T00:29:20.807Z,2.63
2017-11-24T00:31:49.115Z,2.50
2017-11-24T00:34:17.399Z,2.87
2017-11-24T00:36:46.699Z,3.07
2017-11-24T00:39:14.984Z,2.67
2017-11-24T00:41:43.268Z,2.60
2017-11-24T00:44:11.580Z,3.03
2017-11-24T00:46:40.672Z,3.03
2017-11-24T00:49:08.955Z,3.43
2017-11-24T00:51:37.279Z,3.40
2017-11-24T00:54:06.328Z,3.00
2017-11-24T00:56:34.664Z,4.40
2017-11-24T00:59:02.953Z,3.43
2017-11-24T01:01:32.045Z,2.57
2017-11-24T01:04:00.413Z,2.40
2017-11-24T01:06:28.733Z,3.10
2017-11-24T01:08:57.031Z,3.27
2017-11-24T01:11:25.514Z,2.20
2017-11-24T01:13:53.800Z,3.07
2017-11-24T01:16:22.162Z,3.17
2017-11-24T01:18:50.452Z,3.20
2017-11-24T01:21:18.741Z,3.27
2017-11-24T01:23:47.113Z,3.40
2017-11-24T01:26:15.547Z,2.50
2017-11-24T01:28:43.824Z,3.17
2017-11-24T01:31:12.170Z,2.57
2017-11-24T01:33:40.629Z,3.23
2017-11-24T01:36:08.912Z,2.67
2017-11-24T01:38:37.194Z,2.83
2017-11-24T01:41:05.504Z,3.60
2017-11-24T01:43:34.580Z,4.07
2017-11-24T01:46:02.868Z,4.27
2017-11-24T01:48:31.180Z,3.57
2017-11-24T01:50:59.468Z,3.30
2017-11-24T01:53:27.777Z,3.07
2017-11-24T01:55:56.828Z,2.83
2017-11-24T01:58:25.152Z,3.20
2017-11-24T02:00:53.441Z,2.93
2017-11-24T02:03:21.747Z,3.63
2017-11-24T02:05:50.800Z,2.70
2017-11-24T02:08:19.115Z,3.90
2017-11-24T02:10:47.399Z,3.47
2017-11-24T02:13:15.703Z,3.50
2017-11-24T02:15:43.988Z,3.00
2017-11-24T02:18:12.374Z,2.90
2017-11-24T02:20:40.688Z,3.70
2017-11-24T02:23:09.784Z,3.47
2017-11-24T02:25:38.072Z,4.00
2017-11-24T02:28:06.404Z,2.90
2017-11-24T02:30:34.693Z,3.13
2017-11-24T02:33:02.995Z,3.60
2017-11-24T02:35:31.275Z,3.33
2017-11-24T02:37:59.596Z,3.73
2017-11-24T02:40:27.891Z,3.50
2017-11-24T02:42:56.195Z,3.50
2017-11-24T02:45:24.583Z,3.50
2017-11-24T02:47:52.975Z,3.37
2017-11-24T02:50:21.256Z,3.30
2017-11-24T02:52:49.564Z,3.10
2017-11-24T02:55:17.843Z,3.33
2017-11-24T02:57:46.175Z,2.70
2017-11-24T03:00:15.324Z,3.33
2017-11-24T03:02:43.624Z,4.20
2017-11-24T03:05:11.909Z,3.70
2017-11-24T03:07:40.211Z,3.23
2017-11-24T03:10:08.496Z,3.27
2017-11-24T03:12:38.344Z,3.03
2017-11-24T03:15:07.391Z,3.53
2017-11-24T03:17:35.725Z,3.47
2017-11-24T03:20:04.052Z,2.70
2017-11-24T03:22:32.336Z,3.90
2017-11-24T03:25:00.648Z,3.47
2017-11-24T03:27:28.930Z,3.13
2017-11-24T03:29:57.265Z,3.97
2017-11-24T03:32:25.556Z,3.10
2017-11-24T03:34:53.845Z,3.83
2017-11-24T03:37:22.260Z,3.10
2017-11-24T03:39:51.364Z,3.90
2017-11-24T03:42:19.641Z,4.47
2017-11-24T03:44:47.979Z,3.40
2017-11-24T03:47:16.260Z,4.63
2017-11-24T03:49:44.723Z,4.03
2017-11-24T03:52:13.003Z,3.63
2017-11-24T03:54:41.384Z,3.93
2017-11-24T03:57:09.691Z,4.90
2017-11-24T03:59:38.744Z,4.60
2017-11-24T04:02:07.149Z,5.20
2017-11-24T04:04:35.436Z,5.13
2017-11-24T04:07:03.765Z,4.33
2017-11-24T04:09:32.860Z,4.50
2017-11-24T04:12:01.212Z,4.63
2017-11-24T04:14:29.532Z,4.30
2017-11-24T04:16:57.823Z,4.30
2017-11-24T04:19:26.168Z,4.60
2017-11-24T04:21:54.451Z,3.63
2017-11-24T04:24:22.804Z,4.00
2017-11-24T04:26:51.116Z,3.80
2017-11-24T04:29:20.167Z,5.00
2017-11-24T04:31:48.473Z,4.80
2017-11-24T04:34:16.764Z,4.13
2017-11-24T04:36:45.070Z,5.40
2017-11-24T04:39:13.356Z,4.87
2017-11-24T04:41:41.659Z,4.93
2017-11-24T04:44:10.713Z,5.73
2017-11-24T04:46:39.057Z,5.30
2017-11-24T04:49:08.113Z,4.90
2017-11-24T04:51:36.528Z,3.80
2017-11-24T04:54:04.817Z,5.27
2017-11-24T04:56:33.221Z,4.30
2017-11-24T04:59:01.501Z,4.17
2017-11-24T05:01:29.812Z,3.97
2017-11-24T05:03:58.867Z,3.73
2017-11-24T05:06:27.191Z,4.40
2017-11-24T05:08:55.500Z,4.10
2017-11-24T05:11:24.579Z,5.07
2017-11-24T05:13:52.864Z,4.70
2017-11-24T05:16:21.205Z,4.60
2017-11-24T05:18:49.540Z,5.10
2017-11-24T05:21:17.827Z,4.70
2017-11-24T05:23:46.111Z,5.03
2017-11-24T05:26:14.516Z,4.80
2017-11-24T05:28:42.855Z,3.97
2017-11-24T05:31:11.148Z,4.00
2017-11-24T05:33:39.448Z,3.47
2017-11-24T05:36:07.780Z,3.80
2017-11-24T05:38:36.057Z,4.37
2017-11-24T05:41:04.335Z,4.13
2017-11-24T05:43:32.667Z,4.27
2017-11-24T05:46:00.991Z,4.50
2017-11-24T05:48:29.305Z,4.30
2017-11-24T05:50:57.611Z,4.47
2017-11-24T05:53:27.412Z,4.47
2017-11-24T05:55:56.077Z,4.37
2017-11-24T05:58:24.431Z,3.70
2017-11-24T06:00:52.714Z,4.00
2017-11-24T06:03:21.056Z,4.27
2017-11-24T06:05:49.392Z,4.70
2017-11-24T06:08:17.716Z,4.60
2017-11-24T06:10:46.793Z,4.83
2017-11-24T06:13:15.188Z,4.60
2017-11-24T06:15:43.468Z,4.80
2017-11-24T06:18:11.748Z,4.43
2017-11-24T06:20:40.088Z,4.40
2017-11-24T06:23:09.573Z,5.30
2017-11-24T06:25:37.856Z,4.40
2017-11-24T06:28:06.155Z,4.80
2017-11-24T06:30:34.479Z,4.70
2017-11-24T06:33:02.765Z,5.40
2017-11-24T06:35:31.865Z,5.03
2017-11-24T06:38:01.040Z,4.87
2017-11-24T06:40:29.339Z,4.00
2017-11-24T06:42:57.666Z,4.80
2017-11-24T06:45:26.016Z,5.40
2017-11-24T06:47:54.295Z,4.80
2017-11-24T06:50:22.622Z,5.50
2017-11-24T06:52:51.667Z,5.00
2017-11-24T06:55:19.988Z,4.97
2017-11-24T06:57:48.292Z,5.40
2017-11-24T07:00:16.576Z,5.10
2017-11-24T07:02:44.889Z,6.07
2017-11-24T07:05:13.941Z,4.97
2017-11-24T07:07:42.347Z,5.80
2017-11-24T07:10:10.675Z,4.47
2017-11-24T07:12:39.713Z,5.93
2017-11-24T07:15:07.987Z,5.00
2017-11-24T07:17:36.345Z,4.67
2017-11-24T07:20:05.396Z,4.73
2017-11-24T07:22:33.724Z,5.20
2017-11-24T07:25:02.035Z,5.50
2017-11-24T07:27:31.089Z,5.47
2017-11-24T07:30:00.636Z,4.80
2017-11-24T07:32:29.127Z,5.40
2017-11-24T07:34:57.416Z,5.13
2017-11-24T07:37:25.703Z,5.10
2017-11-24T07:39:54.506Z,4.97
2017-11-24T07:42:22.791Z,4.90
2017-11-24T07:44:51.084Z,5.10
2017-11-24T07:47:19.420Z,4.80
2017-11-24T07:49:48.467Z,5.57
2017-11-24T07:52:16.975Z,3.67
2017-11-24T07:54:45.260Z,4.50
2017-11-24T07:57:13.544Z,4.63
2017-11-24T07:59:41.852Z,4.17
2017-11-24T08:02:10.136Z,4.70
2017-11-24T08:04:38.467Z,4.20
2017-11-24T08:07:07.512Z,4.50
2017-11-24T08:09:35.860Z,4.60
2017-11-24T08:12:04.148Z,4.93
2017-11-24T08:14:33.201Z,4.93
2017-11-24T08:17:01.523Z,5.50
2017-11-24T08:19:29.808Z,4.77
2017-11-24T08:21:58.088Z,5.23
2017-11-24T08:24:26.402Z,4.30
2017-11-24T08:26:55.451Z,5.90
2017-11-24T08:29:23.759Z,4.40
2017-11-24T08:31:52.056Z,4.83
2017-11-24T08:34:20.391Z,5.00
2017-11-24T08:36:48.676Z,5.30
2017-11-24T08:39:17.791Z,4.97
2017-11-24T08:41:46.135Z,5.03
2017-11-24T08:44:14.423Z,4.40
2017-11-24T08:46:48.448Z,4.70
2017-11-24T08:49:22.398Z,5.40
2017-11-24T08:51:51.449Z,5.30
2017-11-24T08:54:19.787Z,4.97
2017-11-24T08:56:49.626Z,4.70
2017-11-24T08:59:18.676Z,5.00
2017-11-24T09:01:46.971Z,4.63
2017-11-24T09:04:15.305Z,4.40
2017-11-24T09:06:44.360Z,4.90
2017-11-24T09:09:12.693Z,4.60
2017-11-24T09:11:40.976Z,5.27
2017-11-24T09:14:09.264Z,5.50
2017-11-24T09:16:37.605Z,5.20
2017-11-24T09:19:05.892Z,5.80
2017-11-24T09:21:34.240Z,6.47
2017-11-24T09:24:03.296Z,5.37
2017-11-24T09:26:31.584Z,5.80
2017-11-24T09:29:00.008Z,6.07
2017-11-24T09:31:28.293Z,5.13
2017-11-24T09:33:56.613Z,5.27
2017-11-24T09:36:24.904Z,6.77
2017-11-24T09:38:53.999Z,7.73
2017-11-24T09:41:22.284Z,4.90
2017-11-24T09:43:52.071Z,5.17
2017-11-24T09:46:20.405Z,5.90
2017-11-24T09:48:48.732Z,5.23
2017-11-24T09:51:17.067Z,5.60
2017-11-24T09:53:45.372Z,5.60
2017-11-24T09:56:13.652Z,5.10
2017-11-24T09:58:41.952Z,4.73
2017-11-24T10:01:10.233Z,5.00
2017-11-24T10:03:38.536Z,4.73
2017-11-24T10:06:07.583Z,5.00
2017-11-24T10:08:35.910Z,4.90
2017-11-24T10:11:04.261Z,5.50
2017-11-24T10:13:32.583Z,5.53
2017-11-24T10:16:00.868Z,4.63
2017-11-24T10:18:30.392Z,4.33
2017-11-24T10:21:04.500Z,4.80
2017-11-24T10:23:32.907Z,4.67
2017-11-24T10:26:01.249Z,4.33
2017-11-24T10:28:29.576Z,5.63
2017-11-24T10:30:57.964Z,5.00
2017-11-24T10:33:26.253Z,5.27
2017-11-24T10:35:54.561Z,3.83
2017-11-24T10:38:22.868Z,4.77
2017-11-24T10:40:52.663Z,4.07
2017-11-24T10:43:20.987Z,3.80
2017-11-24T10:45:49.273Z,3.20
2017-11-24T10:48:17.600Z,4.10
2017-11-24T10:50:45.884Z,2.90
2017-11-24T10:53:14.209Z,4.20
2017-11-24T10:55:42.616Z,2.70
2017-11-24T10:58:10.895Z,3.90
2017-11-24T11:00:40.116Z,3.10
2017-11-24T11:03:08.396Z,2.97
2017-11-24T11:05:36.683Z,2.80
2017-11-24T11:08:04.984Z,3.00
2017-11-24T11:10:33.263Z,3.33
2017-11-24T11:13:01.730Z,3.50
2017-11-24T11:15:30.048Z,3.47
2017-11-24T11:17:58.327Z,4.33
2017-11-24T11:20:26.658Z,2.20
2017-11-24T11:22:54.985Z,3.63
2017-11-24T11:25:23.320Z,2.40
2017-11-24T11:27:51.705Z,3.10
2017-11-24T11:30:21.238Z,2.20
2017-11-24T11:32:49.530Z,2.87
2017-11-24T11:35:17.855Z,2.23
2017-11-24T11:37:46.131Z,2.17
2017-11-24T11:40:14.416Z,2.60
2017-11-24T11:42:43.493Z,2.80
2017-11-24T11:45:11.875Z,2.50
2017-11-24T11:47:40.265Z,2.03
2017-11-24T11:50:08.551Z,2.30
2017-11-24T11:52:36.940Z,2.70
2017-11-24T11:55:05.237Z,2.30
2017-11-24T11:57:33.569Z,1.77
2017-11-24T12:00:01.857Z,3.53
2017-11-24T12:02:30.144Z,2.57
2017-11-24T12:04:59.237Z,2.00
2017-11-24T12:07:28.336Z,2.33
2017-11-24T12:09:56.622Z,2.30
2017-11-24T12:12:25.409Z,2.10
2017-11-24T12:14:53.684Z,2.50
2017-11-24T12:17:21.964Z,3.43
2017-11-24T12:19:50.371Z,2.27
2017-11-24T12:22:18.647Z,2.90
2017-11-24T12:24:46.975Z,2.70
2017-11-24T12:27:16.031Z,3.00
2017-11-24T12:29:44.304Z,2.90
2017-11-24T12:32:12.643Z,2.03
2017-11-24T12:34:40.917Z,2.70
2017-11-24T12:37:09.248Z,2.50
2017-11-24T12:39:38.300Z,2.90
2017-11-24T12:42:06.628Z,2.80
2017-11-24T12:44:35.706Z,2.27
2017-11-24T12:47:04.011Z,2.50
2017-11-24T12:49:32.296Z,2.23
2017-11-24T12:52:00.605Z,2.27
2017-11-24T12:54:28.884Z,3.00
2017-11-24T12:56:57.380Z,1.80
2017-11-24T12:59:25.656Z,2.40
2017-11-24T13:01:53.941Z,2.40
2017-11-24T13:04:22.268Z,3.17
2017-11-24T13:06:51.316Z,2.63
2017-11-24T13:09:19.600Z,2.90
2017-11-24T13:11:47.932Z,2.47
2017-11-24T13:14:16.316Z,3.13
2017-11-24T13:16:44.622Z,2.93
2017-11-24T13:19:12.910Z,2.57
2017-11-24T13:21:41.279Z,2.90
2017-11-24T13:24:09.561Z,3.30
2017-11-24T13:26:37.960Z,2.80
2017-11-24T13:29:06.239Z,2.77
2017-11-24T13:31:34.640Z,2.60
2017-11-24T13:34:02.923Z,3.20
2017-11-24T13:36:31.360Z,2.40
2017-11-24T13:39:00.412Z,2.93
2017-11-24T13:41:28.724Z,2.30
2017-11-24T13:43:57.032Z,2.20
2017-11-24T13:46:25.377Z,2.43
2017-11-24T13:48:53.651Z,3.27
2017-11-24T13:51:21.988Z,2.40
2017-11-24T13:53:50.263Z,3.90
2017-11-24T13:56:18.597Z,2.43
2017-11-24T13:58:47.648Z,3.27
2017-11-24T14:01:15.952Z,2.67
2017-11-24T14:03:44.300Z,3.40
2017-11-24T14:06:12.581Z,2.57
2017-11-24T14:08:40.920Z,2.67
2017-11-24T14:11:09.208Z,3.50
2017-11-24T14:13:37.484Z,3.30
2017-11-24T14:16:05.792Z,2.90
2017-11-24T14:18:34.075Z,2.53
2017-11-24T14:21:02.868Z,3.63
2017-11-24T14:23:31.148Z,1.80
2017-11-24T14:25:59.484Z,1.80
2017-11-24T14:28:29.170Z,1.83
2017-11-24T14:30:59.139Z,1.93
2017-11-24T14:33:30.364Z,1.73
2017-11-24T14:35:59.977Z,1.70
2017-11-24T14:38:28.884Z,1.70
2017-11-24T14:40:57.197Z,1.60
2017-11-24T14:43:27.999Z,1.60
2017-11-24T14:45:56.329Z,1.70
2017-11-24T14:48:28.197Z,1.07
2017-11-24T14:50:56.579Z,1.27
2017-11-24T14:53:24.892Z,0.93
2017-11-24T14:55:53.558Z,0.83
2017-11-24T14:58:22.376Z,0.80
2017-11-24T15:00:51.264Z,1.10
2017-11-24T15:03:21.703Z,0.70
2017-11-24T15:05:50.085Z,1.00
2017-11-24T15:08:18.793Z,1.00
2017-11-24T15:10:48.208Z,0.90
2017-11-24T15:13:16.492Z,1.20
2017-11-24T15:15:44.780Z,1.10
2017-11-24T15:18:13.107Z,1.30
2017-11-24T15:20:42.160Z,1.07
2017-11-24T15:23:10.461Z,1.23
2017-11-24T15:25:40.005Z,1.37
2017-11-24T15:28:08.349Z,1.50
2017-11-24T15:30:36.627Z,2.03
2017-11-24T15:33:04.911Z,1.70
2017-11-24T15:35:33.225Z,2.10
2017-11-24T15:38:01.507Z,2.33
2017-11-24T15:40:29.816Z,1.90
2017-11-24T15:42:58.422Z,2.63
2017-11-24T15:45:27.568Z,2.90
2017-11-24T15:47:56.624Z,3.33
2017-11-24T15:50:25.496Z,3.77
2017-11-24T15:52:53.817Z,3.97
2017-11-24T15:55:22.132Z,3.83
2017-11-24T15:57:50.424Z,3.80
2017-11-24T16:00:18.728Z,3.23
2017-11-24T16:02:47.020Z,3.70
2017-11-24T16:05:16.118Z,2.70
2017-11-24T16:07:44.406Z,3.10
2017-11-24T16:10:12.744Z,2.57
2017-11-24T16:12:41.039Z,2.30
2017-11-24T16:15:09.360Z,2.63
2017-11-24T16:17:37.651Z,2.00
2017-11-24T16:20:06.021Z,2.47
2017-11-24T16:22:34.340Z,2.17
2017-11-24T16:25:02.723Z,3.50
2017-11-24T16:27:31.021Z,2.13
2017-11-24T16:29:59.324Z,2.63
2017-11-24T16:32:28.380Z,2.97
2017-11-24T16:34:56.795Z,3.27
2017-11-24T16:37:25.408Z,2.33
2017-11-24T16:39:53.691Z,3.50
2017-11-24T16:42:22.072Z,3.73
2017-11-24T16:44:51.701Z,2.97
2017-11-24T16:47:19.991Z,5.17
2017-11-24T16:49:48.263Z,3.23
2017-11-24T16:52:16.567Z,4.30
2017-11-24T16:54:46.180Z,3.57
2017-11-24T16:57:14.468Z,4.00
2017-11-24T16:59:42.780Z,4.00
2017-11-24T17:02:11.137Z,4.13
2017-11-24T17:04:39.434Z,3.67
2017-11-24T17:07:07.704Z,3.70
2017-11-24T17:09:36.034Z,2.93
2017-11-24T17:12:05.248Z,3.57
2017-11-24T17:14:34.295Z,2.50
2017-11-24T17:17:02.623Z,3.07
2017-11-24T17:19:30.933Z,2.90
2017-11-24T17:21:59.977Z,3.00
2017-11-24T17:24:28.289Z,3.40
2017-11-24T17:26:56.572Z,3.77
2017-11-24T17:29:24.904Z,5.00
2017-11-24T17:31:53.966Z,4.00
2017-11-24T17:34:22.253Z,4.93
2017-11-24T17:36:50.580Z,4.50
2017-11-24T17:39:18.856Z,4.17
2017-11-24T17:41:47.189Z,5.67
2017-11-24T17:44:16.296Z,5.63
2017-11-24T17:46:45.350Z,4.20
2017-11-24T17:49:13.623Z,5.90
2017-11-24T17:51:41.923Z,4.60
2017-11-24T17:54:10.204Z,5.97
2017-11-24T17:56:38.527Z,5.47
2017-11-24T17:59:06.817Z,5.83
2017-11-24T18:01:35.124Z,5.13
2017-11-24T18:04:04.169Z,5.73
2017-11-24T18:06:32.488Z,5.27
2017-11-24T18:09:00.812Z,4.80
2017-11-24T18:11:29.852Z,4.73
2017-11-24T18:13:58.151Z,4.77
2017-11-24T18:16:26.468Z,6.00
2017-11-24T18:18:54.757Z,4.03
2017-11-24T18:21:24.381Z,5.50
2017-11-24T18:23:52.656Z,6.07
2017-11-24T18:26:20.935Z,5.47
2017-11-24T18:28:49.240Z,5.37
2017-11-24T18:31:17.545Z,6.10
2017-11-24T18:33:45.828Z,6.77
2017-11-24T18:36:14.137Z,7.20
2017-11-24T18:38:43.181Z,6.13
2017-11-24T18:41:11.475Z,5.37
2017-11-24T18:43:39.766Z,6.03
2017-11-24T18:46:08.500Z,6.10
2017-11-24T18:48:36.792Z,6.90
2017-11-24T18:51:05.064Z,5.43
2017-11-24T18:53:33.397Z,5.40
2017-11-24T18:56:02.449Z,4.90
2017-11-24T18:58:30.772Z,6.20
2017-11-24T19:00:59.075Z,6.07
2017-11-24T19:03:28.128Z,5.30
2017-11-24T19:05:56.459Z,5.90
2017-11-24T19:08:24.845Z,6.33
2017-11-24T19:10:53.149Z,5.60
2017-11-24T19:13:21.439Z,5.30
2017-11-24T19:15:50.508Z,5.47
2017-11-24T19:18:18.811Z,7.10
2017-11-24T19:20:47.313Z,7.10
2017-11-24T19:23:15.600Z,7.90
2017-11-24T19:25:45.387Z,5.83
2017-11-24T19:28:13.716Z,5.50
2017-11-24T19:30:42.004Z,5.57
2017-11-24T19:33:10.287Z,5.70
2017-11-24T19:35:38.621Z,5.30
2017-11-24T19:38:06.903Z,8.20
2017-11-24T19:40:37.305Z,6.20
2017-11-24T19:43:05.636Z,6.70
2017-11-24T19:45:33.985Z,8.10
2017-11-24T19:48:02.283Z,6.67
2017-11-24T19:50:30.558Z,8.90
2017-11-24T19:52:58.889Z,7.00
2017-11-24T19:55:27.979Z,7.20
2017-11-24T19:57:57.073Z,7.40
2017-11-24T20:00:25.572Z,11.50
2017-11-24T20:02:53.867Z,8.87
2017-11-24T20:05:22.975Z,8.27
2017-11-24T20:07:51.299Z,7.03
2017-11-24T20:10:19.577Z,5.27
2017-11-24T20:12:48.668Z,6.10
2017-11-24T20:15:17.729Z,6.23
2017-11-24T20:17:46.137Z,8.13
2017-11-24T20:20:15.220Z,6.10
2017-11-24T20:22:43.542Z,6.17
2017-11-24T20:25:11.847Z,6.60
2017-11-24T20:27:40.176Z,6.17
2017-11-24T20:30:08.467Z,6.30
2017-11-24T20:32:36.784Z,5.53
2017-11-24T20:35:05.063Z,6.80
2017-11-24T20:40:06.859Z,7.07
2017-11-24T20:42:35.169Z,6.07
2017-11-24T20:45:03.447Z,7.20
2017-11-24T20:47:31.790Z,9.80
2017-11-24T20:50:00.836Z,6.70
2017-11-24T20:52:30.092Z,6.33
2017-11-24T20:54:58.420Z,5.30
2017-11-24T20:57:26.781Z,6.00
2017-11-24T20:59:55.873Z,5.97
2017-11-24T21:02:24.163Z,5.90
2017-11-24T21:04:52.540Z,5.60
2017-11-24T21:07:20.861Z,6.47
2017-11-24T21:09:49.903Z,5.17
2017-11-24T21:12:18.236Z,4.43
2017-11-24T21:14:46.508Z,7.60
2017-11-24T21:17:14.828Z,5.90
2017-11-24T21:19:43.999Z,6.10
2017-11-24T21:22:12.271Z,5.70
2017-11-24T21:24:40.560Z,6.00
2017-11-24T21:27:09.180Z,8.20
2017-11-24T21:29:37.455Z,6.60
2017-11-24T21:32:05.862Z,6.77
2017-11-24T21:34:34.186Z,6.27
2017-11-24T21:37:03.260Z,5.67
2017-11-24T21:39:31.561Z,6.50
2017-11-24T21:41:59.859Z,6.53
2017-11-24T21:44:28.914Z,6.73
2017-11-24T21:46:57.344Z,5.93
2017-11-24T21:49:25.620Z,5.43
2017-11-24T21:51:53.931Z,7.17
2017-11-24T21:54:22.219Z,8.10
2017-11-24T21:56:50.552Z,8.23
2017-11-24T21:59:18.834Z,7.03
2017-11-24T22:01:47.180Z,9.00
2017-11-24T22:04:15.469Z,10.73
2017-11-24T22:06:43.968Z,10.97
2017-11-24T22:09:12.258Z,8.03
2017-11-24T22:11:40.634Z,9.90
2017-11-24T22:14:08.959Z,8.30
2017-11-24T22:16:38.149Z,9.07
2017-11-24T22:19:06.484Z,10.57
2017-11-24T22:21:34.828Z,9.43
2017-11-24T22:24:03.136Z,10.10
2017-11-24T22:29:06.795Z,10.87
2017-11-24T22:31:35.357Z,11.50
2017-11-24T22:34:03.736Z,10.17
2017-11-24T22:36:32.021Z,9.33
2017-11-24T22:39:00.334Z,8.10
2017-11-24T22:41:28.639Z,11.27
2017-11-24T22:43:57.690Z,8.57
2017-11-24T22:46:26.017Z,8.37
2017-11-24T22:48:55.833Z,8.90
2017-11-24T22:51:24.139Z,12.13
2017-11-24T22:53:53.192Z,10.00
2017-11-24T22:56:21.528Z,11.53
2017-11-24T22:58:49.816Z,9.47
2017-11-24T23:01:18.155Z,12.00
2017-11-24T23:03:46.443Z,11.13
2017-11-24T23:06:14.756Z,12.23
2017-11-24T23:08:43.071Z,9.90
2017-11-24T23:11:11.462Z,11.20
2017-11-24T23:13:39.759Z,12.00
2017-11-24T23:16:08.877Z,11.50
2017-11-24T23:18:37.988Z,11.30
2017-11-24T23:21:07.280Z,10.20
2017-11-24T23:23:35.573Z,12.10
2017-11-24T23:26:03.866Z,9.90
2017-11-24T23:28:32.441Z,11.30
2017-11-24T23:31:00.728Z,12.33
2017-11-24T23:33:29.017Z,11.53
2017-11-24T23:35:57.352Z,11.40
2017-11-24T23:38:26.472Z,11.33
2017-11-24T23:40:54.760Z,13.07
2017-11-24T23:43:23.052Z,12.63
2017-11-24T23:45:51.387Z,10.30
2017-11-24T23:48:19.674Z,11.70
2017-11-24T23:50:48.081Z,12.30
2017-11-24T23:53:16.370Z,10.50
2017-11-24T23:55:44.684Z,11.47
2017-11-24T23:58:13.747Z,11.97
